sensor_id;sensor_type;location;lat;lon;timestamp;P1;durP1;ratioP1;P2;durP2;ratioP2
48403;SDS011;34202;52.536;6.042;2023-11-21T00:03:19;27.20;;;18.20;;
48403;SDS011;34202;52.536;6.042;2023-11-21T00:08:19;35.30;;;19.10;;
48403;SDS011;34202;52.536;6.042;2023-11-21T00:13:20;31.20;;;20.00;;
48403;SDS011;34202;52.536;6.042;2023-11-21T00:18:20;40.20;;;21.50;;
48403;SDS011;34202;52.536;6.042;2023-11-21T00:23:21;34.50;;;19.20;;
48403;SDS011;34202;52.536;6.042;2023-11-21T00:28:21;31.10;;;18.50;;
48403;SDS011;34202;52.536;6.042;2023-11-21T00:33:22;35.60;;;19.90;;
48403;SDS011;34202;52.536;6.042;2023-11-21T00:38:22;30.00;;;18.70;;
48403;SDS011;34202;52.536;6.042;2023-11-21T00:43:23;37.50;;;21.80;;
48403;SDS011;34202;52.536;6.042;2023-11-21T00:48:24;38.60;;;21.10;;
48403;SDS011;34202;52.536;6.042;2023-11-21T00:53:24;38.40;;;20.20;;
48403;SDS011;34202;52.536;6.042;2023-11-21T00:58:25;35.50;;;21.90;;
48403;SDS011;34202;52.536;6.042;2023-11-21T01:03:26;34.00;;;21.30;;
48403;SDS011;34202;52.536;6.042;2023-11-21T01:08:26;37.50;;;20.70;;
48403;SDS011;34202;52.536;6.042;2023-11-21T01:13:27;35.70;;;20.90;;
48403;SDS011;34202;52.536;6.042;2023-11-21T01:18:28;42.00;;;22.10;;
48403;SDS011;34202;52.536;6.042;2023-11-21T01:23:29;30.40;;;20.30;;
48403;SDS011;34202;52.536;6.042;2023-11-21T01:28:29;36.30;;;22.00;;
48403;SDS011;34202;52.536;6.042;2023-11-21T01:33:30;39.30;;;22.00;;
48403;SDS011;34202;52.536;6.042;2023-11-21T01:38:30;36.60;;;21.10;;
48403;SDS011;34202;52.536;6.042;2023-11-21T01:43:32;39.60;;;21.40;;
48403;SDS011;34202;52.536;6.042;2023-11-21T01:48:32;35.20;;;20.10;;
48403;SDS011;34202;52.536;6.042;2023-11-21T01:53:34;35.90;;;21.00;;
48403;SDS011;34202;52.536;6.042;2023-11-21T01:58:36;34.70;;;21.60;;
48403;SDS011;34202;52.536;6.042;2023-11-21T02:03:37;32.00;;;19.70;;
48403;SDS011;34202;52.536;6.042;2023-11-21T02:08:37;34.00;;;19.20;;
48403;SDS011;34202;52.536;6.042;2023-11-21T02:13:38;35.50;;;19.90;;
48403;SDS011;34202;52.536;6.042;2023-11-21T02:18:42;36.80;;;20.10;;
48403;SDS011;34202;52.536;6.042;2023-11-21T02:23:43;44.30;;;21.40;;
48403;SDS011;34202;52.536;6.042;2023-11-21T02:29:17;32.30;;;21.00;;
48403;SDS011;34202;52.536;6.042;2023-11-21T02:34:22;34.30;;;19.10;;
48403;SDS011;34202;52.536;6.042;2023-11-21T02:39:24;29.60;;;19.00;;
48403;SDS011;34202;52.536;6.042;2023-11-21T02:44:25;29.40;;;19.10;;
48403;SDS011;34202;52.536;6.042;2023-11-21T02:49:26;32.00;;;16.90;;
48403;SDS011;34202;52.536;6.042;2023-11-21T02:54:28;34.60;;;19.30;;
48403;SDS011;34202;52.536;6.042;2023-11-21T02:59:29;37.40;;;19.60;;
48403;SDS011;34202;52.536;6.042;2023-11-21T03:04:29;33.30;;;18.80;;
48403;SDS011;34202;52.536;6.042;2023-11-21T03:09:32;35.70;;;20.30;;
48403;SDS011;34202;52.536;6.042;2023-11-21T03:14:33;32.40;;;19.90;;
48403;SDS011;34202;52.536;6.042;2023-11-21T03:19:33;30.70;;;18.10;;
48403;SDS011;34202;52.536;6.042;2023-11-21T03:24:34;35.30;;;18.10;;
48403;SDS011;34202;52.536;6.042;2023-11-21T03:29:34;33.50;;;19.20;;
48403;SDS011;34202;52.536;6.042;2023-11-21T03:34:35;32.70;;;20.60;;
48403;SDS011;34202;52.536;6.042;2023-11-21T03:39:35;35.00;;;19.60;;
48403;SDS011;34202;52.536;6.042;2023-11-21T03:44:36;36.00;;;20.60;;
48403;SDS011;34202;52.536;6.042;2023-11-21T03:49:36;33.50;;;19.30;;
48403;SDS011;34202;52.536;6.042;2023-11-21T03:54:38;35.10;;;21.00;;
48403;SDS011;34202;52.536;6.042;2023-11-21T03:59:42;36.20;;;19.80;;
48403;SDS011;34202;52.536;6.042;2023-11-21T04:04:43;36.90;;;21.10;;
48403;SDS011;34202;52.536;6.042;2023-11-21T04:09:44;28.70;;;16.80;;
48403;SDS011;34202;52.536;6.042;2023-11-21T04:14:44;30.90;;;18.10;;
48403;SDS011;34202;52.536;6.042;2023-11-21T04:19:45;32.50;;;18.50;;
48403;SDS011;34202;52.536;6.042;2023-11-21T04:24:46;35.20;;;18.10;;
48403;SDS011;34202;52.536;6.042;2023-11-21T04:29:46;33.80;;;18.10;;
48403;SDS011;34202;52.536;6.042;2023-11-21T04:34:46;38.50;;;18.90;;
48403;SDS011;34202;52.536;6.042;2023-11-21T04:39:47;29.80;;;17.80;;
48403;SDS011;34202;52.536;6.042;2023-11-21T04:44:48;35.60;;;19.30;;
48403;SDS011;34202;52.536;6.042;2023-11-21T04:49:49;26.60;;;17.50;;
48403;SDS011;34202;52.536;6.042;2023-11-21T04:54:49;31.70;;;17.50;;
48403;SDS011;34202;52.536;6.042;2023-11-21T04:59:50;35.30;;;19.10;;
48403;SDS011;34202;52.536;6.042;2023-11-21T05:04:50;30.10;;;18.50;;
48403;SDS011;34202;52.536;6.042;2023-11-21T05:09:50;29.30;;;17.40;;
48403;SDS011;34202;52.536;6.042;2023-11-21T05:14:51;32.10;;;18.30;;
48403;SDS011;34202;52.536;6.042;2023-11-21T05:19:51;30.10;;;18.80;;
48403;SDS011;34202;52.536;6.042;2023-11-21T05:24:52;29.50;;;18.90;;
48403;SDS011;34202;52.536;6.042;2023-11-21T05:29:52;31.60;;;19.80;;
48403;SDS011;34202;52.536;6.042;2023-11-21T05:34:53;29.70;;;18.20;;
48403;SDS011;34202;52.536;6.042;2023-11-21T05:39:53;32.60;;;19.50;;
48403;SDS011;34202;52.536;6.042;2023-11-21T05:44:57;29.70;;;18.10;;
48403;SDS011;34202;52.536;6.042;2023-11-21T05:49:59;27.80;;;18.60;;
48403;SDS011;34202;52.536;6.042;2023-11-21T05:54:59;32.30;;;19.50;;
48403;SDS011;34202;52.536;6.042;2023-11-21T06:00:00;31.20;;;19.10;;
48403;SDS011;34202;52.536;6.042;2023-11-21T06:05:03;36.80;;;19.80;;
48403;SDS011;34202;52.536;6.042;2023-11-21T06:10:04;27.50;;;17.00;;
48403;SDS011;34202;52.536;6.042;2023-11-21T06:15:07;30.30;;;19.00;;
48403;SDS011;34202;52.536;6.042;2023-11-21T06:20:10;31.90;;;20.10;;
48403;SDS011;34202;52.536;6.042;2023-11-21T06:25:14;29.10;;;17.10;;
48403;SDS011;34202;52.536;6.042;2023-11-21T06:30:15;35.70;;;21.60;;
48403;SDS011;34202;52.536;6.042;2023-11-21T06:35:15;29.10;;;18.20;;
48403;SDS011;34202;52.536;6.042;2023-11-21T06:40:16;31.40;;;18.00;;
48403;SDS011;34202;52.536;6.042;2023-11-21T06:45:20;29.70;;;18.50;;
48403;SDS011;34202;52.536;6.042;2023-11-21T06:50:21;36.30;;;20.30;;
48403;SDS011;34202;52.536;6.042;2023-11-21T06:55:22;34.10;;;17.10;;
48403;SDS011;34202;52.536;6.042;2023-11-21T07:00:22;33.10;;;17.70;;
48403;SDS011;34202;52.536;6.042;2023-11-21T07:05:22;32.60;;;17.50;;
48403;SDS011;34202;52.536;6.042;2023-11-21T07:10:23;34.90;;;18.10;;
48403;SDS011;34202;52.536;6.042;2023-11-21T07:15:23;35.30;;;18.90;;
48403;SDS011;34202;52.536;6.042;2023-11-21T07:20:26;30.90;;;19.50;;
48403;SDS011;34202;52.536;6.042;2023-11-21T07:25:27;40.00;;;21.70;;
48403;SDS011;34202;52.536;6.042;2023-11-21T07:30:27;44.40;;;21.70;;
48403;SDS011;34202;52.536;6.042;2023-11-21T07:35:28;44.70;;;24.30;;
48403;SDS011;34202;52.536;6.042;2023-11-21T07:40:28;44.80;;;25.50;;
48403;SDS011;34202;52.536;6.042;2023-11-21T07:45:28;50.90;;;24.80;;
48403;SDS011;34202;52.536;6.042;2023-11-21T07:50:29;41.80;;;22.20;;
48403;SDS011;34202;52.536;6.042;2023-11-21T07:55:29;46.50;;;22.30;;
48403;SDS011;34202;52.536;6.042;2023-11-21T08:00:32;47.00;;;21.60;;
48403;SDS011;34202;52.536;6.042;2023-11-21T08:05:33;39.10;;;20.70;;
48403;SDS011;34202;52.536;6.042;2023-11-21T08:10:34;42.50;;;20.70;;
48403;SDS011;34202;52.536;6.042;2023-11-21T08:15:35;31.50;;;15.80;;
48403;SDS011;34202;52.536;6.042;2023-11-21T08:20:37;34.30;;;19.20;;
48403;SDS011;34202;52.536;6.042;2023-11-21T08:25:39;38.10;;;19.40;;
48403;SDS011;34202;52.536;6.042;2023-11-21T08:30:40;35.70;;;18.80;;
48403;SDS011;34202;52.536;6.042;2023-11-21T08:35:41;34.40;;;18.60;;
48403;SDS011;34202;52.536;6.042;2023-11-21T08:40:41;27.60;;;16.90;;
48403;SDS011;34202;52.536;6.042;2023-11-21T08:45:42;37.30;;;17.60;;
48403;SDS011;34202;52.536;6.042;2023-11-21T08:50:42;28.10;;;16.70;;
48403;SDS011;34202;52.536;6.042;2023-11-21T08:55:43;24.10;;;16.00;;
48403;SDS011;34202;52.536;6.042;2023-11-21T09:00:44;15.80;;;11.00;;
48403;SDS011;34202;52.536;6.042;2023-11-21T09:05:46;13.90;;;10.00;;
48403;SDS011;34202;52.536;6.042;2023-11-21T09:10:46;16.20;;;10.80;;
48403;SDS011;34202;52.536;6.042;2023-11-21T09:15:47;14.10;;;8.90;;
48403;SDS011;34202;52.536;6.042;2023-11-21T09:20:49;18.30;;;12.20;;
48403;SDS011;34202;52.536;6.042;2023-11-21T09:25:50;16.70;;;11.40;;
48403;SDS011;34202;52.536;6.042;2023-11-21T09:30:51;15.60;;;10.40;;
48403;SDS011;34202;52.536;6.042;2023-11-21T09:35:52;19.40;;;13.80;;
48403;SDS011;34202;52.536;6.042;2023-11-21T09:40:54;20.70;;;12.10;;
48403;SDS011;34202;52.536;6.042;2023-11-21T09:45:56;19.20;;;12.20;;
48403;SDS011;34202;52.536;6.042;2023-11-21T09:51:01;19.10;;;11.70;;
48403;SDS011;34202;52.536;6.042;2023-11-21T09:56:03;17.70;;;11.50;;
48403;SDS011;34202;52.536;6.042;2023-11-21T10:01:05;20.40;;;12.90;;
48403;SDS011;34202;52.536;6.042;2023-11-21T10:06:07;19.20;;;12.80;;
48403;SDS011;34202;52.536;6.042;2023-11-21T10:11:09;21.30;;;12.10;;
48403;SDS011;34202;52.536;6.042;2023-11-21T10:16:13;20.00;;;12.80;;
48403;SDS011;34202;52.536;6.042;2023-11-21T10:21:16;22.20;;;13.20;;
48403;SDS011;34202;52.536;6.042;2023-11-21T10:26:17;19.90;;;12.70;;
48403;SDS011;34202;52.536;6.042;2023-11-21T10:31:20;18.90;;;11.80;;
48403;SDS011;34202;52.536;6.042;2023-11-21T10:36:27;20.40;;;11.80;;
48403;SDS011;34202;52.536;6.042;2023-11-21T10:41:28;18.00;;;11.60;;
48403;SDS011;34202;52.536;6.042;2023-11-21T10:46:28;18.00;;;10.40;;
48403;SDS011;34202;52.536;6.042;2023-11-21T10:51:30;17.90;;;10.40;;
48403;SDS011;34202;52.536;6.042;2023-11-21T10:56:30;20.30;;;11.90;;
48403;SDS011;34202;52.536;6.042;2023-11-21T11:01:35;14.80;;;9.50;;
48403;SDS011;34202;52.536;6.042;2023-11-21T11:06:36;14.80;;;8.50;;
48403;SDS011;34202;52.536;6.042;2023-11-21T11:11:42;15.90;;;9.00;;
48403;SDS011;34202;52.536;6.042;2023-11-21T11:16:44;12.90;;;8.80;;
48403;SDS011;34202;52.536;6.042;2023-11-21T11:32:08;21.60;;;13.80;;
48403;SDS011;34202;52.536;6.042;2023-11-21T11:37:21;23.90;;;15.50;;
48403;SDS011;34202;52.536;6.042;2023-11-21T11:42:23;24.90;;;15.60;;
48403;SDS011;34202;52.536;6.042;2023-11-21T11:52:37;28.60;;;17.10;;
48403;SDS011;34202;52.536;6.042;2023-11-21T11:57:42;27.70;;;17.20;;
48403;SDS011;34202;52.536;6.042;2023-11-21T12:02:50;25.80;;;17.10;;
48403;SDS011;34202;52.536;6.042;2023-11-21T12:07:57;28.00;;;17.50;;
48403;SDS011;34202;52.536;6.042;2023-11-21T12:12:58;27.80;;;19.00;;
48403;SDS011;34202;52.536;6.042;2023-11-21T12:18:01;28.60;;;18.30;;
48403;SDS011;34202;52.536;6.042;2023-11-21T12:23:01;28.00;;;18.40;;
48403;SDS011;34202;52.536;6.042;2023-11-21T12:28:02;31.20;;;21.30;;
48403;SDS011;34202;52.536;6.042;2023-11-21T12:33:03;25.30;;;17.40;;
48403;SDS011;34202;52.536;6.042;2023-11-21T12:38:06;29.70;;;19.90;;
48403;SDS011;34202;52.536;6.042;2023-11-21T12:43:09;30.90;;;20.20;;
48403;SDS011;34202;52.536;6.042;2023-11-21T12:48:09;27.40;;;18.20;;
48403;SDS011;34202;52.536;6.042;2023-11-21T12:53:11;26.50;;;17.50;;
48403;SDS011;34202;52.536;6.042;2023-11-21T12:58:13;27.00;;;16.50;;
48403;SDS011;34202;52.536;6.042;2023-11-21T13:03:14;22.10;;;15.10;;
48403;SDS011;34202;52.536;6.042;2023-11-21T13:08:17;18.60;;;12.10;;
48403;SDS011;34202;52.536;6.042;2023-11-21T13:13:22;21.20;;;16.20;;
48403;SDS011;34202;52.536;6.042;2023-11-21T13:18:25;20.30;;;16.20;;
48403;SDS011;34202;52.536;6.042;2023-11-21T13:23:34;17.20;;;13.10;;
48403;SDS011;34202;52.536;6.042;2023-11-21T13:28:36;17.50;;;12.90;;
48403;SDS011;34202;52.536;6.042;2023-11-21T13:33:37;13.50;;;11.30;;
48403;SDS011;34202;52.536;6.042;2023-11-21T13:38:38;12.80;;;10.00;;
48403;SDS011;34202;52.536;6.042;2023-11-21T13:43:42;11.90;;;10.60;;
48403;SDS011;34202;52.536;6.042;2023-11-21T13:48:48;13.90;;;10.20;;
48403;SDS011;34202;52.536;6.042;2023-11-21T13:53:56;14.30;;;10.50;;
48403;SDS011;34202;52.536;6.042;2023-11-21T13:58:56;13.00;;;10.00;;
48403;SDS011;34202;52.536;6.042;2023-11-21T14:03:59;9.30;;;8.20;;
48403;SDS011;34202;52.536;6.042;2023-11-21T14:09:19;11.30;;;8.80;;
48403;SDS011;34202;52.536;6.042;2023-11-21T14:14:33;10.40;;;8.10;;
48403;SDS011;34202;52.536;6.042;2023-11-21T14:19:34;13.30;;;8.70;;
48403;SDS011;34202;52.536;6.042;2023-11-21T14:24:39;11.60;;;8.10;;
48403;SDS011;34202;52.536;6.042;2023-11-21T14:29:45;10.40;;;8.90;;
48403;SDS011;34202;52.536;6.042;2023-11-21T14:34:46;9.70;;;7.20;;
48403;SDS011;34202;52.536;6.042;2023-11-21T14:39:47;11.40;;;8.30;;
48403;SDS011;34202;52.536;6.042;2023-11-21T14:44:49;13.50;;;9.00;;
48403;SDS011;34202;52.536;6.042;2023-11-21T14:49:51;9.70;;;8.30;;
48403;SDS011;34202;52.536;6.042;2023-11-21T14:54:56;10.10;;;8.50;;
48403;SDS011;34202;52.536;6.042;2023-11-21T15:00:20;9.30;;;7.20;;
48403;SDS011;34202;52.536;6.042;2023-11-21T15:05:42;13.50;;;8.90;;
48403;SDS011;34202;52.536;6.042;2023-11-21T15:10:42;14.50;;;8.80;;
48403;SDS011;34202;52.536;6.042;2023-11-21T15:15:49;10.80;;;7.40;;
48403;SDS011;34202;52.536;6.042;2023-11-21T15:20:50;9.50;;;7.90;;
48403;SDS011;34202;52.536;6.042;2023-11-21T15:25:50;12.00;;;8.60;;
48403;SDS011;34202;52.536;6.042;2023-11-21T15:30:51;11.80;;;8.50;;
48403;SDS011;34202;52.536;6.042;2023-11-21T15:35:51;12.10;;;7.80;;
48403;SDS011;34202;52.536;6.042;2023-11-21T15:40:52;11.70;;;8.00;;
48403;SDS011;34202;52.536;6.042;2023-11-21T15:45:53;10.10;;;7.50;;
48403;SDS011;34202;52.536;6.042;2023-11-21T15:50:53;12.50;;;7.80;;
48403;SDS011;34202;52.536;6.042;2023-11-21T15:55:57;11.30;;;8.80;;
48403;SDS011;34202;52.536;6.042;2023-11-21T16:00:58;12.50;;;8.30;;
48403;SDS011;34202;52.536;6.042;2023-11-21T16:05:58;11.40;;;8.90;;
48403;SDS011;34202;52.536;6.042;2023-11-21T16:10:58;13.40;;;8.00;;
48403;SDS011;34202;52.536;6.042;2023-11-21T16:16:00;11.80;;;9.00;;
48403;SDS011;34202;52.536;6.042;2023-11-21T16:21:01;12.40;;;8.40;;
48403;SDS011;34202;52.536;6.042;2023-11-21T16:26:01;13.70;;;8.90;;
48403;SDS011;34202;52.536;6.042;2023-11-21T16:31:04;12.30;;;8.30;;
48403;SDS011;34202;52.536;6.042;2023-11-21T16:36:05;10.40;;;7.30;;
48403;SDS011;34202;52.536;6.042;2023-11-21T16:41:06;10.70;;;7.50;;
48403;SDS011;34202;52.536;6.042;2023-11-21T16:46:09;10.20;;;6.90;;
48403;SDS011;34202;52.536;6.042;2023-11-21T16:51:11;13.10;;;7.80;;
48403;SDS011;34202;52.536;6.042;2023-11-21T16:56:17;12.60;;;8.40;;
48403;SDS011;34202;52.536;6.042;2023-11-21T17:01:17;12.70;;;8.40;;
48403;SDS011;34202;52.536;6.042;2023-11-21T17:06:19;11.80;;;7.40;;
48403;SDS011;34202;52.536;6.042;2023-11-21T17:11:19;14.50;;;8.40;;
48403;SDS011;34202;52.536;6.042;2023-11-21T17:16:20;13.50;;;8.80;;
48403;SDS011;34202;52.536;6.042;2023-11-21T17:21:21;9.30;;;6.90;;
48403;SDS011;34202;52.536;6.042;2023-11-21T17:26:22;12.50;;;8.30;;
48403;SDS011;34202;52.536;6.042;2023-11-21T17:31:23;13.20;;;8.10;;
48403;SDS011;34202;52.536;6.042;2023-11-21T17:36:24;10.90;;;7.50;;
48403;SDS011;34202;52.536;6.042;2023-11-21T17:41:24;10.30;;;8.40;;
48403;SDS011;34202;52.536;6.042;2023-11-21T17:46:25;10.10;;;7.50;;
48403;SDS011;34202;52.536;6.042;2023-11-21T17:51:25;13.80;;;8.70;;
48403;SDS011;34202;52.536;6.042;2023-11-21T17:56:26;13.30;;;7.70;;
48403;SDS011;34202;52.536;6.042;2023-11-21T18:01:26;10.60;;;8.20;;
48403;SDS011;34202;52.536;6.042;2023-11-21T18:06:33;10.80;;;7.90;;
48403;SDS011;34202;52.536;6.042;2023-11-21T18:11:33;11.10;;;7.80;;
48403;SDS011;34202;52.536;6.042;2023-11-21T18:16:34;9.20;;;7.90;;
48403;SDS011;34202;52.536;6.042;2023-11-21T18:21:40;9.10;;;7.00;;
48403;SDS011;34202;52.536;6.042;2023-11-21T18:26:41;9.90;;;7.50;;
48403;SDS011;34202;52.536;6.042;2023-11-21T18:31:41;11.90;;;8.10;;
48403;SDS011;34202;52.536;6.042;2023-11-21T18:36:42;13.90;;;8.40;;
48403;SDS011;34202;52.536;6.042;2023-11-21T18:41:44;12.70;;;8.10;;
48403;SDS011;34202;52.536;6.042;2023-11-21T18:46:44;9.80;;;7.50;;
48403;SDS011;34202;52.536;6.042;2023-11-21T18:51:45;9.20;;;7.40;;
48403;SDS011;34202;52.536;6.042;2023-11-21T18:56:47;9.20;;;7.20;;
48403;SDS011;34202;52.536;6.042;2023-11-21T19:01:48;11.60;;;8.40;;
48403;SDS011;34202;52.536;6.042;2023-11-21T19:06:48;13.20;;;7.40;;
48403;SDS011;34202;52.536;6.042;2023-11-21T19:11:49;11.60;;;9.50;;
48403;SDS011;34202;52.536;6.042;2023-11-21T19:16:49;9.00;;;6.90;;
48403;SDS011;34202;52.536;6.042;2023-11-21T19:21:49;10.40;;;7.80;;
48403;SDS011;34202;52.536;6.042;2023-11-21T19:26:50;13.50;;;8.50;;
48403;SDS011;34202;52.536;6.042;2023-11-21T19:31:51;10.00;;;7.50;;
48403;SDS011;34202;52.536;6.042;2023-11-21T19:36:52;10.80;;;7.00;;
48403;SDS011;34202;52.536;6.042;2023-11-21T19:41:52;11.30;;;8.10;;
48403;SDS011;34202;52.536;6.042;2023-11-21T19:46:52;14.00;;;8.70;;
48403;SDS011;34202;52.536;6.042;2023-11-21T19:51:53;10.20;;;7.50;;
48403;SDS011;34202;52.536;6.042;2023-11-21T19:56:53;12.90;;;7.70;;
48403;SDS011;34202;52.536;6.042;2023-11-21T20:01:53;10.10;;;7.40;;
48403;SDS011;34202;52.536;6.042;2023-11-21T20:06:55;12.00;;;8.40;;
48403;SDS011;34202;52.536;6.042;2023-11-21T20:11:56;10.80;;;8.80;;
48403;SDS011;34202;52.536;6.042;2023-11-21T20:16:58;11.60;;;7.60;;
48403;SDS011;34202;52.536;6.042;2023-11-21T20:21:59;14.40;;;8.80;;
48403;SDS011;34202;52.536;6.042;2023-11-21T20:26:59;11.50;;;8.70;;
48403;SDS011;34202;52.536;6.042;2023-11-21T20:32:03;11.40;;;7.70;;
48403;SDS011;34202;52.536;6.042;2023-11-21T20:37:05;13.30;;;8.90;;
48403;SDS011;34202;52.536;6.042;2023-11-21T20:42:06;12.50;;;8.70;;
48403;SDS011;34202;52.536;6.042;2023-11-21T20:47:06;16.00;;;9.10;;
48403;SDS011;34202;52.536;6.042;2023-11-21T20:52:08;14.10;;;9.60;;
48403;SDS011;34202;52.536;6.042;2023-11-21T20:57:08;13.40;;;9.30;;
48403;SDS011;34202;52.536;6.042;2023-11-21T21:02:09;9.10;;;7.60;;
48403;SDS011;34202;52.536;6.042;2023-11-21T21:07:10;13.50;;;9.00;;
48403;SDS011;34202;52.536;6.042;2023-11-21T21:12:10;13.70;;;9.50;;
48403;SDS011;34202;52.536;6.042;2023-11-21T21:17:14;18.60;;;9.70;;
48403;SDS011;34202;52.536;6.042;2023-11-21T21:22:14;12.80;;;10.10;;
48403;SDS011;34202;52.536;6.042;2023-11-21T21:27:15;17.20;;;10.60;;
48403;SDS011;34202;52.536;6.042;2023-11-21T21:32:15;16.50;;;9.90;;
48403;SDS011;34202;52.536;6.042;2023-11-21T21:37:15;14.10;;;9.50;;
48403;SDS011;34202;52.536;6.042;2023-11-21T21:42:16;12.30;;;10.20;;
48403;SDS011;34202;52.536;6.042;2023-11-21T21:47:16;13.20;;;10.00;;
48403;SDS011;34202;52.536;6.042;2023-11-21T21:52:17;14.10;;;10.30;;
48403;SDS011;34202;52.536;6.042;2023-11-21T21:57:17;13.30;;;9.70;;
48403;SDS011;34202;52.536;6.042;2023-11-21T22:02:17;12.60;;;9.70;;
48403;SDS011;34202;52.536;6.042;2023-11-21T22:07:18;18.20;;;12.10;;
48403;SDS011;34202;52.536;6.042;2023-11-21T22:12:21;16.80;;;10.20;;
48403;SDS011;34202;52.536;6.042;2023-11-21T22:17:22;17.80;;;10.60;;
48403;SDS011;34202;52.536;6.042;2023-11-21T22:22:22;17.10;;;12.40;;
48403;SDS011;34202;52.536;6.042;2023-11-21T22:27:23;17.70;;;12.00;;
48403;SDS011;34202;52.536;6.042;2023-11-21T22:32:24;17.40;;;11.80;;
48403;SDS011;34202;52.536;6.042;2023-11-21T22:37:24;15.20;;;10.70;;
48403;SDS011;34202;52.536;6.042;2023-11-21T22:42:24;16.40;;;11.30;;
48403;SDS011;34202;52.536;6.042;2023-11-21T22:47:25;17.80;;;12.40;;
48403;SDS011;34202;52.536;6.042;2023-11-21T22:52:25;12.70;;;10.20;;
48403;SDS011;34202;52.536;6.042;2023-11-21T22:57:26;15.60;;;10.90;;
48403;SDS011;34202;52.536;6.042;2023-11-21T23:02:26;16.90;;;11.90;;
48403;SDS011;34202;52.536;6.042;2023-11-21T23:07:27;16.50;;;11.70;;
48403;SDS011;34202;52.536;6.042;2023-11-21T23:12:27;18.60;;;13.20;;
48403;SDS011;34202;52.536;6.042;2023-11-21T23:17:27;19.10;;;14.30;;
48403;SDS011;34202;52.536;6.042;2023-11-21T23:22:28;15.00;;;12.10;;
48403;SDS011;34202;52.536;6.042;2023-11-21T23:27:29;15.10;;;10.40;;
48403;SDS011;34202;52.536;6.042;2023-11-21T23:32:29;12.80;;;10.10;;
48403;SDS011;34202;52.536;6.042;2023-11-21T23:37:30;15.20;;;11.50;;
48403;SDS011;34202;52.536;6.042;2023-11-21T23:42:30;17.50;;;11.10;;
48403;SDS011;34202;52.536;6.042;2023-11-21T23:47:30;20.60;;;11.70;;
48403;SDS011;34202;52.536;6.042;2023-11-21T23:52:31;15.10;;;11.70;;
48403;SDS011;34202;52.536;6.042;2023-11-21T23:57:31;15.50;;;11.50;;
